This is the latest recevied weather packets stored in our database for station/object OK5TVR-5. If no packets are shown the sender has not sent any weather packets the latest 10 day(s).
| Time | Temp. | Humidity | Pressure | Rain* | Wind** | Luminosity | Snow |
|---|---|---|---|---|---|---|---|
| 1777802475 | 25.56° C | 26% | 1006.5 hPa | 0 mm | - | 362 W/m² | - |
| 1777801574 | 25.56° C | 31% | 1007.5 hPa | 0 mm | - | 359 W/m² | - |
| 1777801574 | 25.56° C | 31% | 1007.5 hPa | 0 mm | - | 359 W/m² | - |
| 1777800673 | 25° C | 31% | 1007.6 hPa | 0 mm | - | 369 W/m² | - |
| 1777800673 | 25° C | 31% | 1007.6 hPa | 0 mm | - | 369 W/m² | - |
| 1777799772 | 24.44° C | 31% | 1007.7 hPa | 0 mm | - | 594 W/m² | - |
| 1777799772 | 24.44° C | 31% | 1007.7 hPa | 0 mm | - | 394 W/m² | - |
| 1777799772 | 24.44° C | 31% | 1007.7 hPa | 76.2 mm | - | 394 W/m² | - |
| 1777799772 | 24.44° C | 31% | 1007.7 hPa | 0 mm | - | 394 W/m² | - |
| 1777798870 | 23.33° C | 34% | 1007.8 hPa | 0 mm | - | 330 W/m² | - |
| 1777797970 | 22.78° C | 35% | 1007.9 hPa | 0 mm | - | 252 W/m² | - |
| 1777797970 | 22.78° C | 35% | 1007.9 hPa | 0 mm | - | 252 W/m² | - |
| 1777797069 | 21.11° C | 40% | 1008 hPa | 0 mm | - | 264 W/m² | - |
| 1777797068 | 21.11° C | 40% | 1008 hPa | 0 mm | - | 264 W/m² | - |
| 1777796169 | 21.11° C | 37% | 1008 hPa | 0 mm | - | 258 W/m² | - |
| 1777796168 | 21.11° C | 37% | 1008 hPa | 0 mm | - | 258 W/m² | - |
| 1777795265 | 20.56° C | 40% | 1008.1 hPa | 0 mm | - | 197 W/m² | - |
| 1777795265 | 20.56° C | 40% | 1008.1 hPa | 0 mm | - | 197 W/m² | - |
| 1777795265 | 20.56° C | 40% | 1008.1 hPa | 0 mm | - | 197 W/m² | - |
| 1777794365 | 17.22° C | 48% | 1009.7 hPa | 0 mm | - | 196 W/m² | - |
| 1777793464 | 17.78° C | 48% | 1009.5 hPa | 0 mm | - | 135 W/m² | - |
| 1777792567 | 18.33° C | 47% | 1009.5 hPa | 0 mm | - | 108 W/m² | - |
| 1777792563 | 18.33° C | 47% | 1009.5 hPa | 0 mm | - | 108 W/m² | - |
| 1777792563 | 18.33° C | 47% | 1009.5 hPa | 0 mm | - | 108 W/m² | - |
| 1777792563 | 18.33° C | 47% | 1009.5 hPa | 0 mm | - | 108 W/m² | - |
* Rain latest hour (hover to see other rain measurements)
** Current wind speed in m/s (hover to see current wind gust speed)